Time;durP1;ratioP1;P1;durP2;ratioP2;P2;SDS_P1;SDS_P2;PMS_P1;PMS_P2;Temp;Humidity;BMP_temperature;BMP_pressure;BME280_temperature;BME280_humidity;BME280_pressure;Samples;Min_cycle;Max_cycle;Signal;HPM_P1;HPM_P2
2021/09/26 00:01:07;;;;;;;56.80;36.03;;;;;;;15.19;70.70;98858.00;4951060;29;20110;-78
2021/09/26 00:03:33;;;;;;;57.08;36.75;;;;;;;15.09;70.65;98853.59;4950967;29;20043;-78
2021/09/26 00:05:58;;;;;;;54.67;36.20;;;;;;;14.99;70.77;98860.19;4952442;29;20031;-77
2021/09/26 00:08:24;;;;;;;56.97;35.83;;;;;;;14.89;70.67;98854.94;4951902;29;20109;-77
2021/09/26 00:10:50;;;;;;;66.68;38.10;;;;;;;14.78;70.72;98851.63;4946883;29;20035;-77
2021/09/26 00:13:15;;;;;;;59.85;37.17;;;;;;;14.71;70.78;98851.25;4951726;29;20107;-78
2021/09/26 00:15:41;;;;;;;65.78;37.22;;;;;;;14.64;70.85;98854.44;4952382;29;20233;-78
2021/09/26 00:18:06;;;;;;;59.67;35.00;;;;;;;14.56;70.91;98853.22;4952470;29;20023;-77
2021/09/26 00:20:32;;;;;;;57.17;34.80;;;;;;;14.44;70.43;98855.72;4952203;29;20026;-76
2021/09/26 00:22:57;;;;;;;56.75;33.45;;;;;;;14.37;70.67;98855.34;4951824;29;20027;-77
2021/09/26 00:25:23;;;;;;;66.65;36.15;;;;;;;14.28;71.07;98863.53;4952320;29;20026;-78
2021/09/26 00:27:49;;;;;;;74.15;38.08;;;;;;;14.20;70.77;98859.56;4952565;29;20023;-77
2021/09/26 00:30:15;;;;;;;70.65;37.25;;;;;;;14.10;71.26;98855.09;4952745;29;20019;-78
2021/09/26 00:32:42;;;;;;;62.80;34.33;;;;;;;14.02;71.12;98855.84;4933804;29;20034;-77
2021/09/26 00:35:09;;;;;;;64.50;34.65;;;;;;;13.92;70.93;98848.59;4952409;29;20105;-77
2021/09/26 00:37:34;;;;;;;55.45;32.75;;;;;;;13.83;71.38;98847.69;4952336;29;20015;-77
2021/09/26 00:39:59;;;;;;;52.53;31.90;;;;;;;13.75;71.33;98854.75;4952274;29;20046;-78
2021/09/26 00:42:25;;;;;;;50.22;31.15;;;;;;;13.72;71.24;98841.59;4951786;29;20474;-78
2021/09/26 00:44:51;;;;;;;47.53;30.40;;;;;;;13.64;71.05;98847.81;4951926;29;20037;-78
2021/09/26 00:47:16;;;;;;;46.90;29.75;;;;;;;13.58;71.22;98849.88;4951971;29;20424;-77
2021/09/26 00:49:42;;;;;;;43.88;27.45;;;;;;;13.52;71.37;98848.34;4951353;29;20499;-77
2021/09/26 00:52:08;;;;;;;42.97;27.10;;;;;;;13.45;71.45;98845.97;4950582;29;20055;-77
2021/09/26 00:54:35;;;;;;;42.15;26.48;;;;;;;13.42;71.53;98848.53;4951409;29;20039;-77
2021/09/26 00:57:02;;;;;;;41.90;25.95;;;;;;;13.33;71.50;98846.44;4950841;29;20086;-77
2021/09/26 00:59:27;;;;;;;37.42;24.60;;;;;;;13.27;71.41;98849.63;4950445;29;20038;-76
2021/09/26 01:01:53;;;;;;;35.20;24.65;;;;;;;13.19;71.63;98849.19;4949713;29;20015;-77
2021/09/26 01:04:19;;;;;;;41.60;25.45;;;;;;;13.12;72.15;98857.03;4933065;29;20021;-76
2021/09/26 01:07:12;;;;;;;37.75;24.45;;;;;;;13.08;71.91;98845.81;4950139;29;20058;-76
2021/09/26 01:09:43;;;;;;;37.17;23.35;;;;;;;13.07;71.94;98854.38;4947998;29;20058;-76
2021/09/26 01:12:27;;;;;;;36.00;22.52;;;;;;;13.02;71.94;98855.28;4948534;29;20028;-76
2021/09/26 01:15:07;;;;;;;37.08;23.02;;;;;;;12.99;72.26;98853.13;4949732;29;20096;-76
2021/09/26 01:17:38;;;;;;;37.92;23.40;;;;;;;12.96;71.98;98859.25;4948964;29;20028;-76
2021/09/26 01:20:21;;;;;;;36.28;21.98;;;;;;;12.92;72.14;98855.47;4950032;29;20487;-76
2021/09/26 01:23:05;;;;;;;33.60;23.15;;;;;;;12.87;72.17;98861.03;4949473;29;20054;-75
2021/09/26 01:25:39;;;;;;;34.55;22.17;;;;;;;12.83;72.29;98858.09;4949778;29;20027;-75
2021/09/26 01:28:24;;;;;;;35.60;23.15;;;;;;;12.77;72.30;98865.63;4949328;29;20039;-75
2021/09/26 01:31:06;;;;;;;33.63;21.48;;;;;;;12.72;72.36;98867.63;4949428;29;20082;-76
2021/09/26 01:33:35;;;;;;;34.60;22.85;;;;;;;12.69;72.43;98863.56;4947747;29;20097;-76
2021/09/26 01:36:09;;;;;;;35.42;23.27;;;;;;;12.68;72.67;98855.59;4949829;29;20401;-77
2021/09/26 01:39:01;;;;;;;33.05;22.90;;;;;;;12.63;72.18;98854.56;4948930;29;20107;-77
2021/09/26 01:41:45;;;;;;;37.33;23.85;;;;;;;12.63;72.36;98859.25;4950175;29;20054;-76
2021/09/26 01:44:32;;;;;;;39.42;25.65;;;;;;;12.61;72.82;98867.00;4950986;28;20043;-75
2021/09/26 01:47:00;;;;;;;43.65;27.98;;;;;;;12.58;72.57;98862.91;4952867;29;20027;-76
2021/09/26 01:49:33;;;;;;;36.83;25.45;;;;;;;12.57;72.75;98865.94;4953412;29;20099;-76
2021/09/26 01:52:00;;;;;;;35.78;24.48;;;;;;;12.54;72.97;98867.38;4952329;29;20074;-77
2021/09/26 01:54:26;;;;;;;45.00;27.65;;;;;;;12.50;72.51;98867.13;4951676;29;20031;-76
2021/09/26 01:56:52;;;;;;;42.35;28.67;;;;;;;12.48;72.78;98863.06;4936555;29;20031;-76
2021/09/26 01:59:21;;;;;;;47.15;30.33;;;;;;;12.45;72.94;98869.16;4953237;29;20066;-76
2021/09/26 02:01:48;;;;;;;46.57;29.10;;;;;;;12.42;72.67;98865.09;4953377;29;20031;-76
2021/09/26 02:04:15;;;;;;;47.92;31.67;;;;;;;12.39;72.76;98868.44;4952790;29;21185;-76
2021/09/26 02:06:42;;;;;;;51.05;32.80;;;;;;;12.39;73.19;98870.34;4953016;29;20043;-76
2021/09/26 02:09:10;;;;;;;48.65;31.92;;;;;;;12.38;73.12;98871.47;4953247;29;20023;-76
2021/09/26 02:11:37;;;;;;;50.85;31.95;;;;;;;12.35;73.05;98868.19;4952842;29;20031;-76
2021/09/26 02:14:04;;;;;;;56.13;34.30;;;;;;;12.36;73.32;98871.78;4952492;29;20090;-76
2021/09/26 02:16:30;;;;;;;60.75;36.63;;;;;;;12.33;73.43;98873.19;4935561;29;20027;-76
2021/09/26 02:18:57;;;;;;;54.80;35.75;;;;;;;12.34;73.16;98874.00;4953008;29;20082;-76
2021/09/26 02:21:25;;;;;;;57.75;36.90;;;;;;;12.33;73.16;98873.19;4952726;29;20099;-76
2021/09/26 02:23:51;;;;;;;64.07;37.13;;;;;;;12.32;73.25;98871.53;4952534;29;20031;-76
2021/09/26 02:26:17;;;;;;;57.05;36.40;;;;;;;12.33;73.73;98872.38;4952699;29;20044;-76
2021/09/26 02:28:43;;;;;;;57.67;37.38;;;;;;;12.32;73.70;98873.50;4935529;29;20124;-76
2021/09/26 02:31:09;;;;;;;63.00;38.03;;;;;;;12.31;73.31;98880.09;4952415;29;20094;-75
2021/09/26 02:33:36;;;;;;;58.25;36.42;;;;;;;12.32;73.32;98884.50;4951863;29;20027;-76
2021/09/26 02:36:06;;;;;;;59.45;36.78;;;;;;;12.29;73.66;98872.13;4952244;29;20027;-76
2021/09/26 02:38:31;;;;;;;;;;;;;;;12.28;73.63;98880.69;4953681;29;20033;-76
2021/09/26 02:41:18;;;;;;;52.78;33.97;;;;;;;12.26;73.73;98877.44;4952894;29;20009;-76
2021/09/26 02:43:54;;;;;;;55.80;35.25;;;;;;;12.22;73.59;98879.97;4952502;29;20102;-76
2021/09/26 02:46:29;;;;;;;56.88;35.00;;;;;;;12.18;73.33;98876.97;4952400;29;20032;-76
2021/09/26 02:48:55;;;;;;;55.08;35.17;;;;;;;12.14;73.50;98877.88;4953144;29;20034;-76
2021/09/26 02:51:20;;;;;;;54.88;34.80;;;;;;;12.12;73.26;98874.59;4953314;29;20813;-77
2021/09/26 02:53:47;;;;;;;50.25;32.45;;;;;;;12.12;73.37;98880.09;4952161;29;20371;-76
2021/09/26 02:56:13;;;;;;;46.75;29.35;;;;;;;12.09;73.62;98886.19;4951216;28;20035;-76
2021/09/26 02:58:39;;;;;;;50.25;31.48;;;;;;;12.10;73.99;98883.13;4950779;29;20495;-76
2021/09/26 03:01:05;;;;;;;47.75;30.10;;;;;;;12.05;73.54;98878.53;4952495;29;20038;-76
2021/09/26 03:03:31;;;;;;;50.60;30.00;;;;;;;12.02;73.48;98887.38;4952251;29;20035;-76
2021/09/26 03:05:57;;;;;;;45.95;30.67;;;;;;;11.98;73.53;98878.03;4952687;29;20031;-77
2021/09/26 03:08:23;;;;;;;43.88;29.50;;;;;;;11.99;73.42;98876.13;4952248;29;20051;-76
2021/09/26 03:10:52;;;;;;;44.05;27.90;;;;;;;11.98;73.69;98877.22;4952498;29;20102;-76
2021/09/26 03:13:18;;;;;;;46.83;29.40;;;;;;;11.96;73.56;98880.25;4951802;29;20039;-76
2021/09/26 03:15:43;;;;;;;44.38;27.73;;;;;;;11.98;74.12;98880.78;4951824;29;20023;-76
2021/09/26 03:18:09;;;;;;;44.53;28.45;;;;;;;11.95;73.89;98884.13;4953311;29;20039;-76
2021/09/26 03:20:35;;;;;;;45.80;28.33;;;;;;;11.93;74.04;98886.34;4953182;29;20082;-76
2021/09/26 03:23:00;;;;;;;42.83;27.58;;;;;;;11.90;73.94;98887.75;4935928;29;20034;-76
2021/09/26 03:25:26;;;;;;;43.30;26.92;;;;;;;11.88;73.39;98891.91;4932609;29;20107;-75
2021/09/26 03:27:51;;;;;;;42.38;27.20;;;;;;;11.86;73.76;98886.72;4952305;29;20090;-76
2021/09/26 03:30:17;;;;;;;40.17;26.30;;;;;;;11.86;73.98;98891.38;4952907;29;20404;-76
2021/09/26 03:32:43;;;;;;;41.47;26.13;;;;;;;11.84;74.06;98894.44;4952028;29;20735;-76
2021/09/26 03:35:10;;;;;;;38.25;25.88;;;;;;;11.83;73.99;98898.28;4951873;29;20038;-76
2021/09/26 03:37:36;;;;;;;42.03;25.50;;;;;;;11.82;73.71;98902.16;4951512;29;20108;-76
2021/09/26 03:40:03;;;;;;;37.42;24.98;;;;;;;11.79;73.82;98894.50;4951254;29;20535;-76
2021/09/26 03:42:29;;;;;;;35.80;23.17;;;;;;;11.76;74.25;98892.34;4952143;29;20031;-76
2021/09/26 03:44:55;;;;;;;35.33;23.08;;;;;;;11.74;73.74;98889.06;4951893;29;20954;-75
2021/09/26 03:47:20;;;;;;;32.67;22.10;;;;;;;11.73;73.69;98899.25;4951114;29;20428;-76
2021/09/26 03:49:47;;;;;;;37.92;23.73;;;;;;;11.71;73.47;98906.13;4951440;29;20031;-76
2021/09/26 03:52:13;;;;;;;34.83;23.38;;;;;;;11.66;73.79;98901.53;4934108;29;20472;-76
2021/09/26 03:54:40;;;;;;;36.42;24.42;;;;;;;11.65;73.52;98901.81;4951513;29;20102;-76
2021/09/26 03:57:06;;;;;;;33.50;22.55;;;;;;;11.62;74.33;98898.53;4951414;29;20027;-75
2021/09/26 03:59:31;;;;;;;34.33;23.17;;;;;;;11.61;74.35;98905.13;4951342;29;20051;-76
2021/09/26 04:01:56;;;;;;;36.28;23.23;;;;;;;11.60;74.19;98899.94;4950923;29;20027;-76
2021/09/26 04:04:25;;;;;;;37.58;23.40;;;;;;;11.58;73.96;98900.25;4951118;29;20023;-75
2021/09/26 04:06:50;;;;;;;36.78;22.98;;;;;;;11.57;74.05;98898.59;4933422;29;20047;-76
2021/09/26 04:09:16;;;;;;;33.88;21.35;;;;;;;11.57;74.41;98903.25;4951043;29;20039;-75
2021/09/26 04:11:42;;;;;;;35.00;23.40;;;;;;;11.53;74.42;98900.31;4950960;29;20031;-75
2021/09/26 04:14:07;;;;;;;32.65;22.15;;;;;;;11.50;73.60;98895.38;4933517;29;20034;-76
2021/09/26 04:16:33;;;;;;;34.42;24.50;;;;;;;11.48;73.97;98894.84;4950821;29;20023;-76
2021/09/26 04:18:58;;;;;;;41.40;27.95;;;;;;;11.50;74.48;98897.31;4933763;29;20074;-77
2021/09/26 04:21:24;;;;;;;36.45;25.17;;;;;;;11.50;74.64;98898.13;4934161;29;21594;-76
2021/09/26 04:23:50;;;;;;;37.95;26.00;;;;;;;11.48;74.53;98905.84;4949096;29;20023;-76
2021/09/26 04:26:16;;;;;;;41.30;26.95;;;;;;;11.50;74.46;98909.13;4951570;29;20027;-75
2021/09/26 04:28:41;;;;;;;39.83;26.38;;;;;;;11.51;74.55;98908.00;4951319;29;20451;-75
2021/09/26 04:31:07;;;;;;;35.13;25.05;;;;;;;11.54;74.35;98917.59;4951009;29;20030;-76
2021/09/26 04:33:33;;;;;;;42.13;27.77;;;;;;;11.56;74.48;98905.22;4950775;29;20031;-76
2021/09/26 04:35:59;;;;;;;41.47;27.15;;;;;;;11.57;74.35;98901.34;4934337;29;20102;-75
2021/09/26 04:38:24;;;;;;;41.00;27.52;;;;;;;11.58;74.16;98905.75;4951653;29;20493;-76
2021/09/26 04:40:50;;;;;;;42.17;28.50;;;;;;;11.57;74.52;98904.09;4934542;29;20023;-76
2021/09/26 04:43:15;;;;;;;46.08;29.40;;;;;;;11.58;74.09;98903.00;4951774;29;20111;-76
2021/09/26 04:45:41;;;;;;;47.22;28.88;;;;;;;11.59;74.69;98906.53;4952054;29;20471;-76
2021/09/26 04:48:07;;;;;;;46.13;28.65;;;;;;;11.60;74.81;98911.75;4950792;29;20707;-75
2021/09/26 04:50:33;;;;;;;46.45;30.63;;;;;;;11.62;75.03;98912.25;4951796;29;20038;-76
2021/09/26 04:52:58;;;;;;;41.90;28.88;;;;;;;11.64;74.36;98906.50;4933864;29;20031;-76
2021/09/26 04:55:25;;;;;;;48.42;30.50;;;;;;;11.65;74.62;98910.03;4951954;29;20046;-76
2021/09/26 04:57:55;;;;;;;49.53;31.30;;;;;;;11.67;74.78;98907.81;4951653;29;20051;-76
2021/09/26 05:00:21;;;;;;;53.67;34.28;;;;;;;11.69;74.92;98913.84;4947609;29;20032;-76
2021/09/26 05:02:48;;;;;;;55.28;38.05;;;;;;;11.71;75.08;98914.38;4951205;29;20035;-76
2021/09/26 05:05:14;;;;;;;59.83;39.80;;;;;;;11.73;74.43;98917.66;4951221;29;20031;-75
2021/09/26 05:07:40;;;;;;;55.42;38.20;;;;;;;11.78;74.53;98920.34;4951174;29;20050;-75
2021/09/26 05:10:06;;;;;;;52.65;34.90;;;;;;;11.81;75.13;98911.50;4950193;29;20030;-76
2021/09/26 05:12:32;;;;;;;57.60;36.42;;;;;;;11.85;74.65;98903.47;4951452;29;20114;-76
2021/09/26 05:15:01;;;;;;;57.08;36.72;;;;;;;11.89;74.76;98910.88;4951628;29;20114;-76
2021/09/26 05:17:28;;;;;;;55.63;35.42;;;;;;;11.94;75.08;98904.47;4952052;28;20115;-76
2021/09/26 05:19:54;;;;;;;52.97;35.28;;;;;;;11.99;74.75;98914.59;4953950;29;20039;-76
2021/09/26 05:22:19;;;;;;;56.45;35.15;;;;;;;12.03;75.18;98913.75;4955964;29;20062;-76
2021/09/26 05:24:45;;;;;;;56.17;36.67;;;;;;;12.05;74.70;98916.19;4956812;29;20384;-76
2021/09/26 05:27:10;;;;;;;54.50;36.55;;;;;;;12.11;75.21;98928.75;4956533;29;20090;-76
2021/09/26 05:29:36;;;;;;;54.47;36.85;;;;;;;12.16;75.06;98920.44;4955685;29;20400;-76
2021/09/26 05:32:02;;;;;;;56.65;37.53;;;;;;;12.24;75.18;98918.94;4956710;29;20027;-76
2021/09/26 05:34:29;;;;;;;55.50;36.80;;;;;;;12.31;75.22;98921.34;4955659;28;20100;-73
2021/09/26 05:36:56;;;;;;;61.60;37.60;;;;;;;12.41;75.57;98915.72;4956260;29;20654;-75
2021/09/26 05:39:21;;;;;;;60.55;38.10;;;;;;;12.49;75.38;98920.53;4955565;29;20027;-75
2021/09/26 05:41:47;;;;;;;55.92;37.25;;;;;;;12.58;75.18;98917.13;4956385;29;20039;-75
2021/09/26 05:44:12;;;;;;;58.03;37.67;;;;;;;12.66;75.16;98917.25;4955997;29;20027;-74
2021/09/26 05:46:37;;;;;;;65.68;41.17;;;;;;;12.74;75.48;98918.53;4939082;29;20027;-75
2021/09/26 05:49:03;;;;;;;60.70;39.20;;;;;;;12.83;75.45;98918.66;4955853;29;20067;-74
2021/09/26 05:51:28;;;;;;;65.80;40.47;;;;;;;12.91;75.64;98919.91;4955632;29;20110;-74
2021/09/26 05:53:54;;;;;;;55.80;37.33;;;;;;;12.99;75.48;98923.91;4937565;29;20078;-75
2021/09/26 05:56:19;;;;;;;59.90;39.15;;;;;;;13.08;75.60;98924.84;4956222;29;20035;-75
2021/09/26 05:58:45;;;;;;;59.67;38.22;;;;;;;13.20;75.61;98935.41;4955242;29;20031;-75
2021/09/26 06:01:10;;;;;;;62.85;39.53;;;;;;;13.30;75.64;98929.69;4952280;29;20027;-74
2021/09/26 06:03:35;;;;;;;62.70;38.60;;;;;;;13.40;75.89;98928.72;4955029;29;20031;-74
2021/09/26 06:06:01;;;;;;;61.08;40.00;;;;;;;13.49;75.54;98932.41;4954723;29;20082;-74
2021/09/26 06:08:26;;;;;;;59.35;39.15;;;;;;;13.57;75.75;98925.41;4955404;29;20054;-74
2021/09/26 06:10:55;;;;;;;57.95;37.78;;;;;;;13.63;75.66;98929.69;4954843;29;20034;-74
2021/09/26 06:13:21;;;;;;;57.15;38.00;;;;;;;13.67;75.70;98927.13;4954966;29;20086;-74
2021/09/26 06:15:47;;;;;;;58.10;37.47;;;;;;;13.68;75.83;98935.09;4952248;29;20065;-74
2021/09/26 06:18:12;;;;;;;58.75;37.58;;;;;;;13.74;76.02;98932.22;4938529;29;20383;-74
2021/09/26 06:20:38;;;;;;;76.35;47.47;;;;;;;13.81;76.00;98933.47;4953445;29;20031;-73
2021/09/26 06:23:04;;;;;;;79.15;51.25;;;;;;;13.88;75.89;98935.81;4954822;29;20213;-74
2021/09/26 06:25:29;;;;;;;87.22;49.60;;;;;;;13.92;76.04;98941.53;4955291;29;20027;-74
2021/09/26 06:27:58;;;;;;;82.18;45.45;;;;;;;14.00;76.36;98938.06;4954980;29;20028;-74
2021/09/26 06:30:24;;;;;;;70.83;44.50;;;;;;;14.07;76.24;98930.19;4953486;28;20514;-73
2021/09/26 06:32:49;;;;;;;64.88;40.72;;;;;;;14.15;76.25;98931.41;4954742;29;20051;-73
2021/09/26 06:35:16;;;;;;;64.53;42.10;;;;;;;14.24;76.25;98943.34;4955140;29;20035;-73
2021/09/26 06:37:41;;;;;;;61.55;39.63;;;;;;;14.31;76.13;98939.34;4954127;29;20061;-73
2021/09/26 06:40:08;;;;;;;60.63;38.83;;;;;;;14.37;76.32;98936.16;4955078;29;20043;-74
2021/09/26 06:42:34;;;;;;;60.58;39.15;;;;;;;14.46;76.37;98941.78;4954580;29;20467;-74
2021/09/26 06:44:59;;;;;;;59.63;38.53;;;;;;;14.53;76.49;98947.66;4953078;29;20043;-74
2021/09/26 06:47:25;;;;;;;55.85;37.58;;;;;;;14.60;76.30;98936.22;4954996;29;20028;-74
2021/09/26 06:49:51;;;;;;;59.75;37.45;;;;;;;14.70;76.71;98940.72;4950470;29;20019;-72
2021/09/26 06:52:17;;;;;;;59.95;37.63;;;;;;;14.80;76.67;98943.25;4952847;29;20035;-73
2021/09/26 06:54:43;;;;;;;66.25;38.28;;;;;;;14.87;76.36;98943.63;4937094;29;20498;-74
2021/09/26 06:57:10;;;;;;;80.30;41.85;;;;;;;14.95;76.41;98943.97;4954181;29;20454;-75
2021/09/26 06:59:36;;;;;;;80.00;41.97;;;;;;;15.01;76.17;98946.31;4937112;29;20031;-76
2021/09/26 07:02:01;;;;;;;129.07;50.97;;;;;;;15.11;76.34;98952.72;4954964;29;20036;-75
2021/09/26 07:04:27;;;;;;;70.15;39.70;;;;;;;15.19;76.32;98954.72;4954613;29;20038;-73
2021/09/26 07:06:52;;;;;;;59.15;36.90;;;;;;;15.28;76.82;98952.03;4951862;29;20051;-74
2021/09/26 07:09:18;;;;;;;60.75;38.92;;;;;;;15.36;76.28;98958.72;4951569;28;20043;-76
2021/09/26 07:11:44;;;;;;;69.47;39.13;;;;;;;15.47;76.73;98960.91;4935775;29;20027;-73
2021/09/26 07:14:10;;;;;;;67.93;38.72;;;;;;;15.57;76.56;98964.53;4951448;29;20066;-74
2021/09/26 07:16:36;;;;;;;66.13;39.28;;;;;;;15.65;76.73;98963.78;4954026;29;20091;-73
2021/09/26 07:19:01;;;;;;;55.17;35.33;;;;;;;15.73;76.38;98959.41;4954712;29;20034;-73
2021/09/26 07:21:27;;;;;;;55.92;36.10;;;;;;;15.80;76.22;98957.00;4953877;29;20050;-74
2021/09/26 07:23:52;;;;;;;58.53;35.78;;;;;;;15.89;76.46;98957.91;4953698;29;20552;-74
2021/09/26 07:26:17;;;;;;;57.10;35.53;;;;;;;15.97;76.19;98961.81;4950865;29;20106;-74
2021/09/26 07:28:43;;;;;;;51.53;31.77;;;;;;;16.07;76.41;98967.06;4953651;29;20027;-74
2021/09/26 07:31:08;;;;;;;53.15;35.17;;;;;;;16.15;76.15;98962.69;4954015;29;20031;-76
2021/09/26 07:33:34;;;;;;;49.83;34.00;;;;;;;16.25;76.26;98966.31;4953857;29;20027;-76
2021/09/26 07:36:00;;;;;;;52.10;32.80;;;;;;;16.34;76.08;98964.34;4954123;29;20110;-75
2021/09/26 07:38:25;;;;;;;49.95;33.53;;;;;;;16.46;76.21;98972.06;4936796;29;20043;-76
2021/09/26 07:40:51;;;;;;;50.55;31.88;;;;;;;16.57;76.11;98973.34;4951929;29;20395;-72
2021/09/26 07:43:17;;;;;;;43.25;30.15;;;;;;;16.68;75.74;98971.09;4933346;29;20039;-73
2021/09/26 07:45:42;;;;;;;44.38;29.33;;;;;;;16.74;75.50;98972.56;4949719;29;20086;-71
2021/09/26 07:48:08;;;;;;;39.17;26.75;;;;;;;16.84;75.57;98967.84;4952695;29;20065;-71
2021/09/26 07:50:33;;;;;;;40.88;28.98;;;;;;;16.93;75.29;98975.00;4953546;29;20019;-73
2021/09/26 07:52:59;;;;;;;36.55;25.67;;;;;;;17.03;75.14;98970.31;4936078;29;20023;-75
2021/09/26 07:55:25;;;;;;;36.60;25.92;;;;;;;17.12;74.78;98962.81;4953571;29;20038;-79
2021/09/26 07:57:51;;;;;;;39.83;25.88;;;;;;;17.20;74.62;98966.69;4953502;29;20039;-78
2021/09/26 08:00:17;;;;;;;32.72;23.52;;;;;;;17.29;74.39;98972.25;4951916;29;20094;-80
2021/09/26 08:02:43;;;;;;;33.88;24.27;;;;;;;17.38;74.17;98973.84;4952542;29;20104;-79
2021/09/26 08:05:09;;;;;;;33.20;24.50;;;;;;;17.49;74.00;98967.97;4946475;28;20929;-80
2021/09/26 08:07:35;;;;;;;30.90;22.25;;;;;;;17.55;73.95;98970.22;4934857;29;20062;-79
2021/09/26 08:10:01;;;;;;;28.40;20.83;;;;;;;17.65;73.53;98974.59;4932033;29;20123;-78
2021/09/26 08:12:26;;;;;;;28.02;19.92;;;;;;;17.74;73.58;98977.34;4952511;29;20372;-79
2021/09/26 08:14:52;;;;;;;29.23;21.10;;;;;;;17.82;72.78;98984.81;4952188;29;20039;-80
2021/09/26 08:17:17;;;;;;;28.35;19.70;;;;;;;17.89;72.56;98976.00;4953280;29;20026;-80
2021/09/26 08:19:43;;;;;;;27.77;19.63;;;;;;;17.96;72.46;98992.91;4936133;29;20430;-74
2021/09/26 08:22:09;;;;;;;27.83;20.98;;;;;;;18.03;72.26;98981.34;4952040;29;20051;-75
2021/09/26 08:24:35;;;;;;;29.05;21.05;;;;;;;18.12;71.81;98982.13;4952504;29;20035;-72
2021/09/26 08:27:02;;;;;;;27.10;17.73;;;;;;;18.21;71.73;98982.09;4953053;29;20035;-72
2021/09/26 08:29:28;;;;;;;29.02;20.17;;;;;;;18.28;71.79;98981.53;4952676;29;20122;-71
2021/09/26 08:31:54;;;;;;;27.25;18.92;;;;;;;18.35;71.59;98983.78;4952915;29;20491;-77
2021/09/26 08:34:19;;;;;;;27.70;20.10;;;;;;;18.40;71.18;98992.75;4952511;29;20023;-76
2021/09/26 08:36:45;;;;;;;27.92;19.30;;;;;;;18.49;70.91;98986.34;4952542;29;20086;-77
2021/09/26 08:39:10;;;;;;;25.23;18.15;;;;;;;18.55;71.18;98979.41;4952918;29;20023;-74
2021/09/26 08:41:36;;;;;;;27.40;18.92;;;;;;;18.63;71.07;98986.06;4953147;29;20050;-75
2021/09/26 08:44:01;;;;;;;25.88;17.35;;;;;;;18.70;70.94;98983.59;4952381;29;20106;-77
2021/09/26 08:46:27;;;;;;;23.45;17.58;;;;;;;18.77;70.51;98991.38;4951006;29;20035;-76
2021/09/26 08:48:54;;;;;;;24.17;15.93;;;;;;;18.81;69.81;98987.56;4951892;29;20019;-78
2021/09/26 08:51:20;;;;;;;29.95;23.60;;;;;;;18.87;70.06;98988.19;4953462;29;20114;-76
2021/09/26 08:53:46;;;;;;;23.33;17.85;;;;;;;18.95;69.99;98987.28;4952502;29;20110;-77
2021/09/26 08:56:12;;;;;;;26.27;20.65;;;;;;;19.05;69.52;98983.34;4953592;29;20612;-78
2021/09/26 08:58:38;;;;;;;19.42;16.27;;;;;;;19.16;69.38;98989.28;4936140;29;20118;-77
2021/09/26 09:01:04;;;;;;;18.63;12.98;;;;;;;19.25;69.44;98986.41;4953081;29;20507;-76
2021/09/26 09:03:29;;;;;;;14.68;12.10;;;;;;;19.33;67.91;98988.31;4952182;29;20028;-77
2021/09/26 09:05:55;;;;;;;19.42;13.95;;;;;;;19.41;68.35;98979.06;4952881;29;20034;-76
2021/09/26 09:08:23;;;;;;;16.65;12.63;;;;;;;19.50;68.50;98981.75;4953214;29;20062;-77
2021/09/26 09:10:50;;;;;;;17.52;14.05;;;;;;;19.57;68.07;98973.66;4951023;29;20031;-76
2021/09/26 09:13:21;;;;;;;17.40;13.30;;;;;;;19.67;68.41;98977.16;4951920;29;20034;-76
2021/09/26 09:16:16;;;;;;;17.92;12.98;;;;;;;19.78;67.76;98973.59;4944857;29;20396;-76
2021/09/26 09:18:47;;;;;;;19.02;13.32;;;;;;;19.87;67.39;98975.47;4952087;29;20050;-76
2021/09/26 09:21:25;;;;;;;15.82;12.38;;;;;;;19.94;67.52;98975.72;4952276;29;20023;-76
2021/09/26 09:23:52;;;;;;;17.27;12.23;;;;;;;19.97;66.18;98972.22;4952552;29;20042;-76
2021/09/26 09:26:35;;;;;;;15.00;11.35;;;;;;;19.97;66.28;98963.06;4934895;29;20123;-76
2021/09/26 09:29:01;;;;;;;15.13;11.65;;;;;;;20.03;66.34;98967.25;4953081;29;20387;-76
2021/09/26 09:31:26;;;;;;;15.80;11.60;;;;;;;20.13;66.75;98965.97;4935655;29;20023;-76
2021/09/26 09:33:51;;;;;;;16.38;11.45;;;;;;;20.21;66.35;98971.44;4952059;29;20059;-75
2021/09/26 09:36:21;;;;;;;15.05;11.52;;;;;;;20.29;65.87;98966.09;4935383;29;20031;-77
2021/09/26 09:38:49;;;;;;;13.45;11.77;;;;;;;20.39;66.18;98960.06;4952329;29;20157;-76
2021/09/26 09:41:50;;;;;;;15.98;11.93;;;;;;;20.55;66.23;98962.94;4952228;29;20111;-76
2021/09/26 09:44:16;;;;;;;12.82;9.80;;;;;;;20.68;64.75;98966.50;4951336;29;20480;-76
2021/09/26 09:46:44;;;;;;;11.18;9.98;;;;;;;20.79;64.49;98964.06;4952235;29;20024;-76
2021/09/26 09:49:19;;;;;;;14.65;11.30;;;;;;;20.87;64.30;98967.88;4951803;29;20023;-76
2021/09/26 09:51:55;;;;;;;12.57;10.95;;;;;;;20.97;64.36;98964.59;4950769;29;20036;-76
2021/09/26 09:54:41;;;;;;;13.35;11.38;;;;;;;21.10;64.53;98963.38;4951575;29;20038;-76
2021/09/26 09:57:15;;;;;;;14.23;11.93;;;;;;;21.25;64.19;98969.38;4951651;29;20046;-76
2021/09/26 09:59:44;;;;;;;14.13;11.40;;;;;;;21.35;63.63;98963.28;4952925;29;20428;-76
2021/09/26 10:02:10;;;;;;;16.60;11.88;;;;;;;21.34;62.70;98964.44;4952493;29;20023;-76
2021/09/26 10:04:44;;;;;;;14.13;11.32;;;;;;;21.31;62.96;98965.16;4953567;28;20024;-77
2021/09/26 10:07:21;;;;;;;15.05;12.13;;;;;;;21.34;62.52;98969.19;4955796;29;20503;-76
2021/09/26 10:09:48;;;;;;;15.55;11.77;;;;;;;21.39;62.89;98964.19;4955160;29;20142;-76
2021/09/26 10:12:27;;;;;;;15.57;10.55;;;;;;;21.44;62.54;98963.09;4955327;29;20495;-76
2021/09/26 10:15:04;;;;;;;13.98;9.93;;;;;;;21.52;63.00;98961.31;4953967;29;20024;-75
2021/09/26 10:17:30;;;;;;;13.52;10.57;;;;;;;21.63;62.53;98953.25;4955270;29;20051;-75
2021/09/26 10:19:56;;;;;;;10.88;8.63;;;;;;;21.73;62.62;98952.72;4954900;29;20427;-74
2021/09/26 10:22:22;;;;;;;13.07;8.90;;;;;;;21.85;62.48;98963.00;4955650;29;20034;-75
2021/09/26 10:24:50;;;;;;;12.48;9.50;;;;;;;21.89;61.78;98960.31;4954682;29;20026;-75
2021/09/26 10:27:21;;;;;;;11.68;10.20;;;;;;;21.88;61.11;98953.88;4954279;29;20026;-75
2021/09/26 10:29:50;;;;;;;11.70;8.75;;;;;;;21.95;61.17;98958.88;4955509;29;20090;-76
2021/09/26 10:32:18;;;;;;;10.23;8.20;;;;;;;22.04;61.25;98959.47;4954188;29;20035;-75
2021/09/26 10:34:43;;;;;;;11.27;8.35;;;;;;;22.08;60.86;98965.16;4952829;29;20035;-75
2021/09/26 10:37:12;;;;;;;9.57;7.60;;;;;;;22.13;60.59;98962.09;4954318;29;20094;-75
2021/09/26 10:39:39;;;;;;;9.77;8.38;;;;;;;22.20;60.62;98962.28;4954438;29;20035;-76
2021/09/26 10:42:12;;;;;;;9.77;7.65;;;;;;;22.26;59.97;98960.00;4936667;29;20515;-76
2021/09/26 10:44:39;;;;;;;12.05;7.40;;;;;;;22.33;59.76;98950.97;4952145;29;20027;-76
2021/09/26 10:47:08;;;;;;;9.25;7.40;;;;;;;22.39;59.05;98953.13;4954409;29;20028;-75
2021/09/26 10:49:41;;;;;;;9.77;7.43;;;;;;;22.48;59.45;98949.34;4951890;29;20708;-77
2021/09/26 10:52:26;;;;;;;7.80;6.25;;;;;;;22.51;59.53;98946.63;4954080;29;20362;-77
2021/09/26 10:54:52;;;;;;;6.93;6.13;;;;;;;22.53;57.96;98941.50;4953214;29;20037;-76
2021/09/26 10:57:24;;;;;;;7.78;6.32;;;;;;;22.56;58.70;98942.75;4953613;29;20063;-76
2021/09/26 10:59:58;;;;;;;9.57;7.22;;;;;;;22.62;58.11;98944.06;4953159;29;20535;-76
2021/09/26 11:02:23;;;;;;;8.10;6.90;;;;;;;22.71;56.56;98938.25;4952570;29;20031;-76
2021/09/26 11:04:54;;;;;;;8.23;7.32;;;;;;;22.80;57.64;98938.06;4953105;29;20488;-76
2021/09/26 11:07:28;;;;;;;8.40;6.55;;;;;;;22.87;57.17;98941.00;4953016;29;20518;-76
2021/09/26 11:09:54;;;;;;;7.30;6.25;;;;;;;22.87;56.79;98943.78;4953390;29;20399;-76
2021/09/26 11:12:39;;;;;;;9.05;7.32;;;;;;;22.87;56.69;98936.22;4952957;29;20590;-76
2021/09/26 11:15:11;;;;;;;8.07;7.25;;;;;;;22.92;56.72;98925.94;4935421;28;20031;-76
2021/09/26 11:17:53;;;;;;;8.98;7.53;;;;;;;22.99;56.77;98931.66;4951986;29;20050;-76
2021/09/26 11:20:25;;;;;;;9.90;8.00;;;;;;;23.04;56.77;98931.34;4935421;29;20057;-75
2021/09/26 11:23:05;;;;;;;9.85;8.23;;;;;;;23.12;56.48;98921.13;4952092;29;20513;-74